createdAt,value
2019-04-27T00:00:15.007Z,97628.80
2019-04-27T00:02:55.818Z,97625.63
2019-04-27T00:05:37.910Z,97627.48
2019-04-27T00:08:18.631Z,97621.41
2019-04-27T00:11:15.601Z,97619.27
2019-04-27T00:13:46.166Z,97616.37
2019-04-27T00:16:40.483Z,97617.02
2019-04-27T00:19:43.823Z,97618.86
2019-04-27T00:22:24.135Z,97614.27
2019-04-27T00:24:53.238Z,97609.50
2019-04-27T00:27:23.441Z,97603.67
2019-04-27T00:29:53.551Z,97604.98
2019-04-27T00:32:23.113Z,97602.03
2019-04-27T00:34:53.246Z,97598.10
2019-04-27T00:37:30.112Z,97589.78
2019-04-27T00:40:06.623Z,97597.88
2019-04-27T00:42:35.824Z,97588.99
2019-04-27T00:45:05.634Z,97593.58
2019-04-27T00:47:35.082Z,97596.42
2019-04-27T00:50:04.464Z,97594.52
2019-04-27T00:52:35.368Z,97591.75
2019-04-27T00:55:04.530Z,97593.53
2019-04-27T00:57:43.615Z,97591.09
2019-04-27T01:00:30.580Z,97596.94
2019-04-27T01:03:07.804Z,97587.63
2019-04-27T01:05:36.862Z,97587.04
2019-04-27T01:08:05.657Z,97590.03
2019-04-27T01:10:34.533Z,97588.94
2019-04-27T01:13:03.906Z,97590.34
2019-04-27T01:15:33.955Z,97594.74
2019-04-27T01:18:12.335Z,97594.42
2019-04-27T01:20:33.844Z,97596.20
2019-04-27T01:23:02.671Z,97597.13
2019-04-27T01:25:48.848Z,97593.29
2019-04-27T01:28:29.087Z,97592.23
2019-04-27T01:31:02.488Z,97590.40
2019-04-27T01:33:33.927Z,97591.98
2019-04-27T01:36:02.635Z,97594.10
2019-04-27T01:38:31.358Z,97598.11
2019-04-27T01:41:00.571Z,97597.22
2019-04-27T01:43:30.273Z,97596.80
2019-04-27T01:46:01.028Z,97598.44
2019-04-27T01:48:30.570Z,97602.55
2019-04-27T01:51:00.687Z,97599.52
2019-04-27T01:53:30.468Z,97598.30
2019-04-27T01:55:59.463Z,97600.17
2019-04-27T01:58:29.291Z,97604.90
2019-04-27T02:01:16.294Z,97598.63
2019-04-27T02:04:02.687Z,97594.33
2019-04-27T02:06:31.601Z,97597.56
2019-04-27T02:09:00.413Z,97597.56
2019-04-27T02:11:29.256Z,97599.47
2019-04-27T02:13:59.429Z,97599.47
2019-04-27T02:16:30.348Z,97599.09
2019-04-27T02:18:58.900Z,97599.47
2019-04-27T02:21:29.453Z,97592.92
2019-04-27T02:23:59.798Z,97586.95
2019-04-27T02:26:29.898Z,97585.63
2019-04-27T02:29:09.517Z,97581.02
2019-04-27T02:32:06.362Z,97579.14
2019-04-27T02:34:42.807Z,97581.85
2019-04-27T02:37:11.842Z,97576.70
2019-04-27T02:39:42.389Z,97583.11
2019-04-27T02:42:11.548Z,97577.45
2019-04-27T02:44:41.161Z,97576.61
2019-04-27T02:47:12.054Z,97571.98
2019-04-27T02:49:40.940Z,97579.23
2019-04-27T02:52:31.515Z,97579.45
2019-04-27T02:55:00.527Z,97584.13
2019-04-27T02:57:30.089Z,97586.37
2019-04-27T03:00:00.005Z,97589.36
2019-04-27T03:02:40.410Z,97593.37
2019-04-27T03:05:10.900Z,97589.59
2019-04-27T03:07:42.877Z,97586.59
2019-04-27T03:10:11.485Z,97589.10
2019-04-27T03:12:45.786Z,97591.63
2019-04-27T03:15:32.334Z,97594.09
2019-04-27T03:18:15.199Z,97594.14
2019-04-27T03:20:56.161Z,97592.31
2019-04-27T03:23:25.100Z,97596.02
2019-04-27T03:26:21.833Z,97596.05
2019-04-27T03:28:50.801Z,97593.25
2019-04-27T03:31:21.510Z,97596.64
2019-04-27T03:33:57.945Z,97591.81
2019-04-27T03:36:21.644Z,97591.34
2019-04-27T03:38:50.663Z,97584.66
2019-04-27T03:41:19.442Z,97585.59
2019-04-27T03:43:50.323Z,97585.03
2019-04-27T03:46:20.407Z,97590.41
2019-04-27T03:48:49.877Z,97579.02
2019-04-27T03:51:35.038Z,97578.73
2019-04-27T03:54:22.298Z,97578.64
2019-04-27T03:57:02.396Z,97574.47
2019-04-27T03:59:51.865Z,97574.09
2019-04-27T04:02:20.668Z,97577.64
2019-04-27T04:04:50.696Z,97578.27
2019-04-27T04:07:19.866Z,97582.38
2019-04-27T04:09:50.316Z,97582.56
2019-04-27T04:12:46.019Z,97587.83
2019-04-27T04:15:25.099Z,97586.73
2019-04-27T04:17:53.816Z,97588.20
2019-04-27T04:20:22.652Z,97588.05
2019-04-27T04:22:51.657Z,97597.20
2019-04-27T04:25:20.379Z,97597.91
2019-04-27T04:27:52.257Z,97599.06
2019-04-27T04:30:21.235Z,97595.14
2019-04-27T04:32:51.999Z,97597.14
2019-04-27T04:35:22.212Z,97595.30
2019-04-27T04:37:52.928Z,97599.31
2019-04-27T04:40:25.604Z,97601.65
2019-04-27T04:43:04.085Z,97602.02
2019-04-27T04:45:52.795Z,97598.16
2019-04-27T04:48:21.792Z,97602.84
2019-04-27T04:50:50.613Z,97605.17
2019-04-27T04:53:20.567Z,97603.80
2019-04-27T04:55:49.647Z,97604.05
2019-04-27T04:58:21.002Z,97602.55
2019-04-27T05:00:50.164Z,97606.30
2019-04-27T05:03:22.173Z,97607.32
2019-04-27T05:05:51.114Z,97609.16
2019-04-27T05:08:19.906Z,97614.14
2019-04-27T05:10:49.758Z,97614.95
2019-04-27T05:13:19.305Z,97615.29
2019-04-27T05:15:48.832Z,97614.45
2019-04-27T05:18:19.138Z,97618.88
2019-04-27T05:20:54.697Z,97616.41
2019-04-27T05:23:23.618Z,97615.48
2019-04-27T05:25:52.405Z,97621.64
2019-04-27T05:28:23.953Z,97616.57
2019-04-27T05:30:52.778Z,97618.47
2019-04-27T05:33:21.486Z,97615.85
2019-04-27T05:35:50.281Z,97622.86
2019-04-27T05:38:19.485Z,97619.22
2019-04-27T05:40:49.991Z,97619.55
2019-04-27T05:43:20.613Z,97618.38
2019-04-27T05:46:44.698Z,97620.18
2019-04-27T05:49:23.403Z,97627.50
2019-04-27T05:51:52.218Z,97619.97
2019-04-27T05:54:21.137Z,97625.34
2019-04-27T05:56:49.968Z,97621.23
2019-04-27T05:59:19.792Z,97626.12
2019-04-27T06:01:51.844Z,97622.17
2019-04-27T06:04:20.776Z,97618.78
2019-04-27T06:06:50.000Z,97614.17
2019-04-27T06:09:19.530Z,97613.36
2019-04-27T06:11:50.607Z,97610.33
2019-04-27T06:14:19.346Z,97619.08
2019-04-27T06:16:49.381Z,97618.30
2019-04-27T06:21:54.721Z,97618.73
2019-04-27T06:24:25.879Z,97617.72
2019-04-27T06:26:54.862Z,97611.58
2019-04-27T06:29:24.001Z,97615.46
2019-04-27T06:31:52.951Z,97610.16
2019-04-27T06:34:21.813Z,97609.36
2019-04-27T06:36:50.752Z,97612.00
2019-04-27T06:39:22.764Z,97614.15
2019-04-27T06:41:51.477Z,97606.47
2019-04-27T06:44:22.434Z,97602.53
2019-04-27T06:46:51.421Z,97602.72
2019-04-27T06:49:20.299Z,97607.52
2019-04-27T06:51:51.253Z,97610.41
2019-04-27T06:54:21.426Z,97606.86
2019-04-27T06:56:53.647Z,97608.50
2019-04-27T07:02:50.325Z,97604.89
2019-04-27T07:05:20.427Z,97612.66
2019-04-27T07:07:49.441Z,97609.16
2019-04-27T07:10:18.689Z,97612.26
2019-04-27T07:12:49.110Z,97618.61
2019-04-27T07:15:20.170Z,97612.70
2019-04-27T07:17:48.978Z,97624.91
2019-04-27T07:20:19.467Z,97618.19
2019-04-27T07:22:49.673Z,97617.75
2019-04-27T07:25:18.940Z,97618.23
2019-04-27T07:27:49.398Z,97625.52
2019-04-27T07:30:19.099Z,97616.21
2019-04-27T07:32:49.077Z,97618.02
2019-04-27T07:35:25.003Z,97620.81
2019-04-27T07:37:56.423Z,97621.08
2019-04-27T07:40:25.257Z,97621.31
2019-04-27T07:42:59.721Z,97621.27
2019-04-27T07:45:32.898Z,97620.58
2019-04-27T07:48:04.857Z,97620.98
2019-04-27T07:50:34.805Z,97623.58
2019-04-27T07:53:14.138Z,97616.64
2019-04-27T07:55:43.227Z,97621.06
2019-04-27T07:58:14.231Z,97618.39
2019-04-27T08:00:43.068Z,97627.59
2019-04-27T08:03:12.044Z,97624.02
2019-04-27T08:05:42.456Z,97622.80
2019-04-27T08:08:11.465Z,97621.28
2019-04-27T08:10:40.486Z,97619.97
2019-04-27T08:13:09.639Z,97624.39
2019-04-27T08:15:39.624Z,97623.33
2019-04-27T08:18:09.061Z,97621.14
2019-04-27T08:20:39.082Z,97622.69
2019-04-27T08:23:09.808Z,97617.06
2019-04-27T08:25:40.848Z,97628.13
2019-04-27T08:28:28.779Z,97625.41
2019-04-27T08:31:29.884Z,97622.42
2019-04-27T08:34:03.544Z,97611.20
2019-04-27T08:36:36.450Z,97619.69
2019-04-27T08:39:09.249Z,97621.80
2019-04-27T08:41:40.024Z,97620.94
2019-04-27T08:44:12.266Z,97628.03
2019-04-27T08:46:47.132Z,97615.66
2019-04-27T08:49:18.911Z,97617.20
2019-04-27T08:51:57.171Z,97623.19
2019-04-27T08:54:19.322Z,97615.91
2019-04-27T08:56:49.490Z,97611.13
2019-04-27T08:59:19.459Z,97611.38
2019-04-27T09:01:49.308Z,97616.73
2019-04-27T09:04:20.107Z,97607.45
2019-04-27T09:06:59.769Z,97599.02
2019-04-27T09:14:47.215Z,97601.54
2019-04-27T09:17:20.881Z,97586.95
2019-04-27T09:20:00.976Z,97580.39
2019-04-27T09:22:29.778Z,97590.08
2019-04-27T09:24:59.510Z,97586.50
2019-04-27T09:27:29.003Z,97598.78
2019-04-27T09:29:59.076Z,97590.17
2019-04-27T09:32:31.010Z,97594.75
2019-04-27T09:34:59.773Z,97593.19
2019-04-27T09:37:28.612Z,97590.88
2019-04-27T09:39:58.779Z,97581.44
2019-04-27T09:42:27.699Z,97574.31
2019-04-27T09:44:57.261Z,97580.83
2019-04-27T09:47:26.640Z,97576.63
2019-04-27T09:49:56.533Z,97588.31
2019-04-27T09:52:26.972Z,97575.25
2019-04-27T09:54:56.081Z,97577.27
2019-04-27T09:57:25.967Z,97576.34
2019-04-27T09:59:56.446Z,97568.13
2019-04-27T10:02:26.979Z,97573.05
2019-04-27T10:04:56.558Z,97569.17
2019-04-27T10:07:26.959Z,97561.75
2019-04-27T10:09:56.705Z,97562.73
2019-04-27T10:12:26.138Z,97568.72
2019-04-27T10:14:56.021Z,97564.21
2019-04-27T10:17:24.739Z,97567.11
2019-04-27T10:19:53.459Z,97573.56
2019-04-27T10:22:22.616Z,97568.48
2019-04-27T10:24:51.578Z,97562.15
2019-04-27T10:27:20.341Z,97563.47
2019-04-27T10:29:49.649Z,97566.39
2019-04-27T10:32:18.511Z,97562.89
2019-04-27T10:34:47.388Z,97557.41
2019-04-27T10:37:16.233Z,97566.20
2019-04-27T10:39:45.984Z,97567.68
2019-04-27T10:42:15.228Z,97561.13
2019-04-27T10:44:45.991Z,97563.13
2019-04-27T10:47:15.880Z,97559.85
2019-04-27T10:49:48.007Z,97555.48
2019-04-27T10:52:15.384Z,97553.25
2019-04-27T10:54:59.279Z,97558.16
2019-04-27T10:57:39.358Z,97524.73
2019-04-27T11:00:11.613Z,97545.66
2019-04-27T11:02:42.470Z,97536.58
2019-04-27T11:05:23.313Z,97538.95
2019-04-27T11:07:52.576Z,97535.33
2019-04-27T11:10:21.790Z,97530.00
2019-04-27T11:12:50.652Z,97530.36
2019-04-27T11:15:19.627Z,97530.45
2019-04-27T11:17:48.525Z,97513.59
2019-04-27T11:20:27.725Z,97514.19
2019-04-27T11:23:07.179Z,97513.95
2019-04-27T11:25:29.304Z,97512.08
2019-04-27T11:27:58.077Z,97508.75
2019-04-27T11:30:27.506Z,97497.44
2019-04-27T11:32:58.988Z,97501.14
2019-04-27T11:35:46.963Z,97486.55
2019-04-27T11:38:17.020Z,97487.55
2019-04-27T11:40:46.610Z,97479.95
2019-04-27T11:43:16.244Z,97467.36
2019-04-27T11:45:45.790Z,97463.34
2019-04-27T11:48:16.194Z,97465.98
2019-04-27T11:50:46.139Z,97459.49
2019-04-27T11:53:22.771Z,97460.59
2019-04-27T11:55:46.250Z,97446.38
2019-04-27T11:58:18.202Z,97444.44
2019-04-27T12:00:47.317Z,97431.52
2019-04-27T12:03:16.654Z,97432.36
2019-04-27T12:05:46.457Z,97427.64
2019-04-27T12:08:16.218Z,97436.62
2019-04-27T12:10:46.351Z,97436.34
2019-04-27T12:13:16.377Z,97432.57
2019-04-27T12:15:46.467Z,97426.56
2019-04-27T12:18:15.340Z,97428.83
2019-04-27T12:20:45.777Z,97424.89
2019-04-27T12:23:16.496Z,97424.09
2019-04-27T12:25:46.247Z,97422.73
2019-04-27T12:28:23.180Z,97426.11
2019-04-27T12:31:09.997Z,97411.82
2019-04-27T12:33:39.507Z,97401.67
2019-04-27T12:36:08.560Z,97409.51
2019-04-27T12:38:37.591Z,97403.19
2019-04-27T12:41:10.802Z,97411.84
2019-04-27T12:43:40.703Z,97412.11
2019-04-27T12:46:09.970Z,97409.06
2019-04-27T12:48:40.420Z,97412.48
2019-04-27T12:51:09.624Z,97413.38
2019-04-27T12:54:12.880Z,97438.74
2019-04-27T12:57:03.659Z,97454.44
2019-04-27T12:59:50.249Z,97439.39
2019-04-27T13:02:21.020Z,97440.63
2019-04-27T13:04:49.880Z,97438.33
2019-04-27T13:07:18.648Z,97436.12
2019-04-27T13:09:47.829Z,97428.08
2019-04-27T13:12:16.644Z,97421.61
2019-04-27T13:14:45.805Z,97427.45
2019-04-27T13:17:17.735Z,97428.95
2019-04-27T13:19:46.579Z,97425.95
2019-04-27T13:22:16.528Z,97423.96
2019-04-27T13:24:45.931Z,97425.08
2019-04-27T13:27:16.575Z,97419.70
2019-04-27T13:29:46.663Z,97421.80
2019-04-27T13:32:16.448Z,97424.55
2019-04-27T13:34:56.677Z,97407.88
2019-04-27T13:37:37.105Z,97406.59
2019-04-27T13:40:09.643Z,97409.75
2019-04-27T13:42:44.711Z,97400.69
2019-04-27T13:45:21.343Z,97391.16
2019-04-27T13:47:56.754Z,97385.68
2019-04-27T13:50:39.445Z,97394.50
2019-04-27T13:53:08.549Z,97382.65
2019-04-27T13:55:37.262Z,97371.73
2019-04-27T13:58:06.080Z,97374.50
2019-04-27T14:00:37.767Z,97363.50
2019-04-27T14:03:05.530Z,97367.34
2019-04-27T14:05:34.282Z,97355.91
2019-04-27T14:08:03.123Z,97360.95
2019-04-27T14:10:32.259Z,97356.17
2019-04-27T14:13:01.136Z,97364.07
2019-04-27T14:15:29.964Z,97358.35
2019-04-27T14:17:59.167Z,97354.95
2019-04-27T14:20:28.745Z,97347.88
2019-04-27T14:23:12.476Z,97347.48
2019-04-27T14:25:41.789Z,97339.45
2019-04-27T14:28:10.553Z,97351.69
2019-04-27T14:30:40.053Z,97368.31
2019-04-27T14:33:09.065Z,97360.02
2019-04-27T14:35:37.942Z,97360.17
2019-04-27T14:38:06.651Z,97364.80
2019-04-27T14:40:35.431Z,97361.63
2019-04-27T14:43:04.258Z,97358.42
2019-04-27T14:45:33.044Z,97355.63
2019-04-27T14:48:01.768Z,97351.30
2019-04-27T14:50:30.526Z,97347.15
2019-04-27T14:52:59.335Z,97349.37
2019-04-27T14:55:29.983Z,97337.41
2019-04-27T14:57:58.717Z,97339.20
2019-04-27T15:00:28.772Z,97334.16
2019-04-27T15:02:59.130Z,97338.11
2019-04-27T15:05:28.196Z,97329.84
2019-04-27T15:07:56.984Z,97327.47
2019-04-27T15:10:27.091Z,97326.22
2019-04-27T15:12:56.518Z,97319.73
2019-04-27T15:15:28.340Z,97321.98
2019-04-27T15:17:57.574Z,97329.56
2019-04-27T15:20:32.883Z,97320.67
2019-04-27T15:23:01.622Z,97334.58
2019-04-27T15:25:35.073Z,97328.82
2019-04-27T15:28:03.301Z,97322.70
2019-04-27T15:30:50.055Z,97332.13
2019-04-27T15:33:40.901Z,97322.23
2019-04-27T15:36:14.699Z,97319.51
2019-04-27T15:38:47.706Z,97326.47
2019-04-27T15:41:24.324Z,97324.92
2019-04-27T15:43:53.194Z,97325.87
2019-04-27T15:46:22.138Z,97327.05
2019-04-27T15:48:54.137Z,97330.66
2019-04-27T15:51:21.892Z,97330.91
2019-04-27T15:53:53.823Z,97330.19
2019-04-27T15:56:22.202Z,97337.59
2019-04-27T15:58:51.018Z,97343.89
2019-04-27T16:01:19.806Z,97340.83
2019-04-27T16:03:51.888Z,97338.88
2019-04-27T16:06:19.714Z,97336.99
2019-04-27T16:08:52.518Z,97337.16
2019-04-27T16:11:21.340Z,97328.68
2019-04-27T16:13:50.480Z,97328.33
2019-04-27T16:16:19.666Z,97332.02
2019-04-27T16:18:49.118Z,97326.39
2019-04-27T16:21:20.037Z,97329.05
2019-04-27T16:23:48.514Z,97330.58
2019-04-27T16:26:18.328Z,97334.06
2019-04-27T16:28:52.928Z,97345.73
2019-04-27T16:31:18.676Z,97329.80
2019-04-27T16:33:49.712Z,97338.56
2019-04-27T16:36:19.726Z,97333.02
2019-04-27T16:39:03.597Z,97331.41
2019-04-27T16:41:32.977Z,97334.05
2019-04-27T16:44:06.984Z,97338.23
2019-04-27T16:46:34.828Z,97336.44
2019-04-27T16:49:07.260Z,97334.49
2019-04-27T16:51:36.851Z,97335.30
2019-04-27T16:54:11.104Z,97336.57
2019-04-27T16:56:38.057Z,97328.77
2019-04-27T17:01:40.033Z,97326.42
2019-04-27T17:04:13.525Z,97328.13
2019-04-27T17:06:45.993Z,97323.87
2019-04-27T17:09:11.778Z,97329.27
2019-04-27T17:11:43.848Z,97323.92
2019-04-27T17:12:40.260Z,97333.78
2019-04-27T17:14:28.985Z,97326.41
2019-04-27T17:17:17.823Z,97324.73
2019-04-27T17:19:51.928Z,97320.87
2019-04-27T17:22:21.009Z,97321.56
2019-04-27T17:24:50.130Z,97319.55
2019-04-27T17:27:28.495Z,97319.20
2019-04-27T17:29:58.452Z,97319.84
2019-04-27T17:32:33.490Z,97328.95
2019-04-27T17:35:04.996Z,97324.29
2019-04-27T17:37:33.773Z,97323.63
2019-04-27T17:40:01.511Z,97321.60
2019-04-27T17:42:30.760Z,97319.20
2019-04-27T17:45:00.586Z,97329.73
2019-04-27T17:47:30.125Z,97342.99
2019-04-27T17:49:59.068Z,97336.73
2019-04-27T17:52:27.841Z,97334.95
2019-04-27T17:54:58.999Z,97344.66
2019-04-27T17:57:30.235Z,97345.14
2019-04-27T18:00:03.123Z,97345.11
2019-04-27T18:02:29.418Z,97352.34
2019-04-27T18:04:58.830Z,97349.22
2019-04-27T18:07:30.116Z,97359.14
2019-04-27T18:09:58.581Z,97349.92
2019-04-27T18:12:28.549Z,97359.81
2019-04-27T18:14:58.121Z,97359.52
2019-04-27T18:17:28.752Z,97359.52
2019-04-27T18:20:00.367Z,97385.31
2019-04-27T18:22:36.507Z,97437.83
2019-04-27T18:25:06.709Z,97456.98
2019-04-27T18:27:59.978Z,97457.41
2019-04-27T18:30:44.839Z,97467.02
2019-04-27T18:33:18.470Z,97476.18
2019-04-27T18:35:49.038Z,97479.97
2019-04-27T18:38:18.106Z,97476.76
2019-04-27T18:40:48.733Z,97485.13
2019-04-27T18:43:18.710Z,97488.41
2019-04-27T18:45:48.602Z,97503.48
2019-04-27T18:48:25.021Z,97505.25
2019-04-27T18:51:03.764Z,97519.86
2019-04-27T18:53:32.990Z,97521.33
2019-04-27T18:56:05.308Z,97526.25
2019-04-27T18:58:32.431Z,97537.72
2019-04-27T19:01:01.307Z,97541.41
2019-04-27T19:03:31.734Z,97550.25
2019-04-27T19:06:00.550Z,97550.40
2019-04-27T19:08:29.269Z,97562.55
2019-04-27T19:11:00.087Z,97562.41
2019-04-27T19:13:28.654Z,97561.14
2019-04-27T19:15:57.896Z,97568.84
2019-04-27T19:18:28.102Z,97564.08
2019-04-27T19:20:58.447Z,97564.95
2019-04-27T19:23:28.598Z,97555.47
2019-04-27T19:26:16.291Z,97568.21
2019-04-27T19:28:59.086Z,97583.59
2019-04-27T19:31:31.767Z,97595.36
2019-04-27T19:34:00.617Z,97590.16
2019-04-27T19:36:30.406Z,97586.68
2019-04-27T19:38:59.484Z,97584.94
2019-04-27T19:41:28.856Z,97600.09
2019-04-27T19:43:59.740Z,97603.80
2019-04-27T19:46:28.577Z,97603.42
2019-04-27T19:48:59.275Z,97601.58
2019-04-27T19:51:28.354Z,97610.75
2019-04-27T19:53:58.144Z,97606.20
2019-04-27T19:56:28.343Z,97617.50
2019-04-27T19:58:59.434Z,97623.89
2019-04-27T20:01:34.339Z,97621.99
2019-04-27T20:04:08.642Z,97625.56
2019-04-27T20:06:38.433Z,97627.80
2019-04-27T20:09:19.111Z,97625.38
2019-04-27T20:11:47.989Z,97630.81
2019-04-27T20:14:16.890Z,97630.36
2019-04-27T20:16:45.835Z,97636.13
2019-04-27T20:19:14.742Z,97641.11
2019-04-27T20:21:43.596Z,97633.08
2019-04-27T20:24:12.754Z,97631.59
2019-04-27T20:26:41.567Z,97635.60
2019-04-27T20:29:11.806Z,97647.19
2019-04-27T20:31:41.060Z,97663.49
2019-04-27T20:34:09.986Z,97673.77
2019-04-27T20:36:38.805Z,97678.61
2019-04-27T20:39:07.740Z,97682.73
2019-04-27T20:41:36.634Z,97673.21
2019-04-27T20:44:05.989Z,97680.49
2019-04-27T20:46:34.969Z,97677.20
2019-04-27T20:49:15.471Z,97680.31
2019-04-27T20:52:15.541Z,97675.43
2019-04-27T20:54:44.383Z,97676.18
2019-04-27T20:57:13.597Z,97675.34
2019-04-27T20:59:42.821Z,97679.47
2019-04-27T21:02:32.095Z,97681.23
2019-04-27T21:05:12.610Z,97686.82
2019-04-27T21:07:44.959Z,97691.10
2019-04-27T21:10:13.840Z,97690.16
2019-04-27T21:12:43.061Z,97689.13
2019-04-27T21:15:12.993Z,97690.52
2019-04-27T21:17:42.888Z,97690.20
2019-04-27T21:20:13.267Z,97687.23
2019-04-27T21:22:42.104Z,97686.55
2019-04-27T21:25:11.839Z,97686.91
2019-04-27T21:27:41.194Z,97690.81
2019-04-27T21:30:11.579Z,97687.66
2019-04-27T21:32:40.562Z,97686.77
2019-04-27T21:35:11.013Z,97681.45
2019-04-27T21:37:40.909Z,97684.05
2019-04-27T21:40:17.908Z,97669.91
2019-04-27T21:42:47.377Z,97665.80
2019-04-27T21:45:16.819Z,97670.83
2019-04-27T21:47:45.820Z,97649.06
2019-04-27T21:50:15.902Z,97645.27
2019-04-27T21:52:55.252Z,97653.66
2019-04-27T21:55:24.251Z,97655.72
2019-04-27T21:57:53.090Z,97665.23
2019-04-27T22:00:46.263Z,97676.77
2019-04-27T22:03:16.067Z,97688.89
2019-04-27T22:05:44.895Z,97708.83
2019-04-27T22:08:13.867Z,97730.69
2019-04-27T22:10:43.198Z,97725.86
2019-04-27T22:13:12.023Z,97726.70
2019-04-27T22:15:41.626Z,97728.08
2019-04-27T22:18:11.147Z,97734.44
2019-04-27T22:20:42.391Z,97733.56
2019-04-27T22:23:22.977Z,97734.70
2019-04-27T22:25:54.145Z,97733.64
2019-04-27T22:28:21.864Z,97734.09
2019-04-27T22:30:50.666Z,97733.91
2019-04-27T22:33:21.329Z,97735.05
2019-04-27T22:35:51.657Z,97735.40
2019-04-27T22:38:20.777Z,97740.42
2019-04-27T22:40:59.147Z,97737.81
2019-04-27T22:43:45.716Z,97732.98
2019-04-27T22:46:17.189Z,97750.70
2019-04-27T22:48:46.319Z,97750.01
2019-04-27T22:51:15.530Z,97746.94
2019-04-27T22:53:44.675Z,97750.12
2019-04-27T22:56:18.662Z,97754.27
2019-04-27T22:59:01.030Z,97752.37
2019-04-27T23:01:46.393Z,97760.15
2019-04-27T23:04:17.813Z,97760.07
2019-04-27T23:06:46.670Z,97766.05
2019-04-27T23:09:15.484Z,97771.83
2019-04-27T23:11:44.346Z,97771.48
2019-04-27T23:14:13.113Z,97776.58
2019-04-27T23:16:43.666Z,97788.48
2019-04-27T23:19:12.582Z,97781.20
2019-04-27T23:21:41.433Z,97781.39
2019-04-27T23:24:10.199Z,97787.72
2019-04-27T23:26:39.005Z,97788.25
2019-04-27T23:29:15.169Z,97790.58
2019-04-27T23:31:52.730Z,97794.95
2019-04-27T23:34:21.708Z,97798.66
2019-04-27T23:36:51.797Z,97796.97
2019-04-27T23:39:20.648Z,97786.41
2019-04-27T23:41:49.509Z,97785.39
2019-04-27T23:44:18.552Z,97793.28
2019-04-27T23:46:47.626Z,97791.56
2019-04-27T23:49:16.513Z,97792.48
2019-04-27T23:51:50.427Z,97784.41
2019-04-27T23:54:19.512Z,97776.06
2019-04-27T23:56:48.633Z,97778.23
2019-04-27T23:59:24.620Z,97775.23
